createdAt,value
2023-04-07T00:00:43.607Z,6.13
2023-04-07T00:05:46.358Z,13.00
2023-04-07T00:10:49.203Z,19.02
2023-04-07T00:15:51.946Z,9.38
2023-04-07T00:20:54.728Z,12.32
2023-04-07T00:25:57.788Z,8.07
2023-04-07T00:31:07.147Z,11.10
2023-04-07T00:36:10.819Z,8.35
2023-04-07T00:41:14.560Z,10.32
2023-04-07T00:46:18.314Z,11.65
2023-04-07T00:51:22.798Z,7.22
2023-04-07T00:56:25.789Z,6.38
2023-04-07T01:01:36.439Z,7.13
2023-04-07T01:06:49.054Z,15.50
2023-04-07T01:12:00.065Z,12.00
2023-04-07T01:17:03.874Z,18.25
2023-04-07T01:22:09.195Z,19.65
2023-04-07T01:27:38.187Z,15.00
2023-04-07T01:32:41.936Z,10.85
2023-04-07T01:37:49.129Z,13.27
2023-04-07T01:42:52.635Z,9.60
2023-04-07T01:47:55.563Z,7.93
2023-04-07T01:52:58.955Z,10.70
2023-04-07T01:58:08.195Z,9.00
2023-04-07T02:03:21.502Z,18.20
2023-04-07T02:08:27.857Z,18.45
2023-04-07T02:13:33.534Z,16.98
2023-04-07T02:18:36.830Z,12.05
2023-04-07T02:23:47.163Z,13.07
2023-04-07T02:28:49.937Z,13.50
2023-04-07T02:33:53.494Z,5.63
2023-04-07T02:38:56.349Z,10.82
2023-04-07T02:43:59.141Z,16.45
2023-04-07T02:49:02.044Z,6.70
2023-04-07T02:54:05.216Z,5.25
2023-04-07T02:59:08.055Z,7.78
2023-04-07T03:04:17.861Z,6.88
2023-04-07T03:09:20.870Z,6.95
2023-04-07T03:14:23.531Z,5.07
2023-04-07T03:19:26.683Z,12.57
2023-04-07T03:24:29.747Z,14.20
2023-04-07T03:29:32.444Z,11.88
2023-04-07T03:34:37.060Z,10.45
2023-04-07T03:39:41.311Z,9.75
2023-04-07T03:44:59.706Z,11.00
2023-04-07T03:50:02.953Z,8.25
2023-04-07T03:55:10.332Z,10.05
2023-04-07T04:00:13.827Z,6.22
2023-04-07T04:05:18.996Z,4.13
2023-04-07T04:10:22.204Z,11.93
2023-04-07T04:15:28.204Z,12.77
2023-04-07T04:20:31.860Z,24.90
2023-04-07T04:25:34.854Z,21.98
2023-04-07T04:30:41.612Z,24.70
2023-04-07T04:35:45.981Z,21.95
2023-04-07T04:40:52.542Z,18.83
2023-04-07T04:46:01.640Z,20.45
2023-04-07T04:51:08.673Z,10.38
2023-04-07T04:56:13.358Z,18.80
2023-04-07T05:01:20.036Z,13.73
2023-04-07T05:06:32.908Z,12.85
2023-04-07T05:11:42.279Z,17.95
2023-04-07T05:16:45.719Z,14.98
2023-04-07T05:21:54.310Z,23.83
2023-04-07T05:26:59.293Z,13.48
2023-04-07T05:32:02.491Z,6.15
2023-04-07T05:37:07.066Z,8.57
2023-04-07T05:42:10.513Z,17.60
2023-04-07T05:47:14.483Z,9.13
2023-04-07T05:52:17.679Z,10.50
2023-04-07T05:57:28.707Z,11.18
2023-04-07T06:02:33.927Z,13.32
2023-04-07T06:07:36.812Z,11.63
2023-04-07T06:12:39.634Z,11.00
2023-04-07T06:17:42.393Z,11.50
2023-04-07T06:22:45.038Z,6.78
2023-04-07T06:27:48.095Z,8.98
2023-04-07T06:32:50.894Z,8.07
2023-04-07T06:37:54.033Z,5.32
2023-04-07T06:42:57.456Z,7.72
2023-04-07T06:48:06.239Z,13.07
2023-04-07T06:53:08.926Z,11.18
2023-04-07T06:58:11.916Z,8.60
2023-04-07T07:03:14.798Z,6.53
2023-04-07T07:08:17.652Z,11.63
2023-04-07T07:13:23.564Z,13.27
2023-04-07T07:18:26.312Z,4.35
2023-04-07T07:23:29.021Z,11.20
2023-04-07T07:28:31.926Z,7.00
2023-04-07T07:33:35.263Z,5.53
2023-04-07T07:38:38.265Z,11.48
2023-04-07T07:43:41.336Z,11.40
2023-04-07T07:48:44.186Z,6.65
2023-04-07T07:53:47.288Z,15.20
2023-04-07T07:58:50.247Z,11.52
2023-04-07T08:03:53.606Z,6.30
2023-04-07T08:08:56.668Z,5.47
2023-04-07T08:13:59.461Z,4.25
2023-04-07T08:19:02.315Z,7.70
2023-04-07T08:24:05.761Z,5.72
2023-04-07T08:29:08.436Z,6.05
2023-04-07T08:34:11.362Z,5.35
2023-04-07T08:39:14.087Z,5.32
2023-04-07T08:44:18.039Z,5.07
2023-04-07T08:49:22.143Z,5.47
2023-04-07T08:54:25.148Z,3.38
2023-04-07T08:59:29.877Z,5.75
2023-04-07T09:04:32.592Z,7.18
2023-04-07T09:09:35.267Z,4.68
2023-04-07T09:14:37.976Z,6.97
2023-04-07T09:19:41.028Z,6.55
2023-04-07T09:24:43.858Z,5.47
2023-04-07T09:29:47.520Z,7.78
2023-04-07T09:34:58.631Z,5.30
2023-04-07T09:40:02.039Z,4.18
2023-04-07T09:45:04.958Z,7.20
2023-04-07T09:50:08.427Z,5.93
2023-04-07T09:55:11.407Z,4.55
2023-04-07T10:00:14.529Z,4.95
2023-04-07T10:05:18.209Z,6.63
2023-04-07T10:10:21.198Z,6.82
2023-04-07T10:15:24.154Z,7.00
2023-04-07T10:20:27.583Z,5.75
2023-04-07T10:25:30.517Z,8.05
2023-04-07T10:30:33.832Z,5.90
2023-04-07T10:35:55.272Z,4.70
2023-04-07T10:40:58.006Z,6.68
2023-04-07T10:46:01.184Z,5.53
2023-04-07T10:51:11.147Z,4.85
2023-04-07T10:56:13.996Z,4.53
2023-04-07T11:01:17.860Z,5.38
2023-04-07T11:06:20.784Z,7.28
2023-04-07T11:11:40.916Z,4.05
2023-04-07T11:16:44.115Z,6.18
2023-04-07T11:21:47.074Z,8.88
2023-04-07T11:26:50.656Z,6.82
2023-04-07T11:31:53.768Z,4.40
2023-04-07T11:36:59.901Z,6.57
2023-04-07T11:42:02.690Z,7.13
2023-04-07T11:47:06.561Z,8.73
2023-04-07T11:52:09.663Z,4.55
2023-04-07T11:57:13.349Z,5.53
2023-04-07T12:02:32.830Z,6.93
2023-04-07T12:07:36.560Z,7.35
2023-04-07T12:12:39.875Z,6.47
2023-04-07T12:17:49.794Z,6.30
2023-04-07T12:22:53.315Z,4.35
2023-04-07T12:27:56.200Z,4.90
2023-04-07T12:32:59.207Z,6.53
2023-04-07T12:38:02.174Z,4.15
2023-04-07T12:43:05.497Z,4.57
2023-04-07T12:48:08.436Z,5.32
2023-04-07T12:53:11.380Z,6.60
2023-04-07T12:58:15.010Z,4.90
2023-04-07T13:03:17.856Z,4.65
2023-04-07T13:08:21.708Z,3.33
2023-04-07T13:13:24.404Z,2.67
2023-04-07T13:18:27.470Z,3.53
2023-04-07T13:23:42.156Z,4.40
2023-04-07T13:28:46.370Z,5.00
2023-04-07T13:33:49.567Z,4.55
2023-04-07T13:38:52.634Z,4.95
2023-04-07T13:43:55.621Z,6.70
2023-04-07T13:48:58.861Z,4.47
2023-04-07T13:54:01.870Z,4.88
2023-04-07T13:59:05.373Z,3.17
2023-04-07T14:04:08.171Z,1.67
2023-04-07T14:09:11.024Z,10.20
2023-04-07T14:14:13.899Z,6.68
2023-04-07T14:19:16.687Z,7.00
2023-04-07T14:24:19.588Z,3.80
2023-04-07T14:29:22.532Z,3.65
2023-04-07T14:34:25.226Z,5.38
2023-04-07T14:39:28.153Z,4.85
2023-04-07T14:44:32.186Z,10.45
2023-04-07T14:49:40.294Z,5.00
2023-04-07T14:54:43.189Z,6.22
2023-04-07T14:59:46.041Z,4.18
2023-04-07T15:04:51.198Z,4.47
2023-04-07T15:09:54.511Z,4.07
2023-04-07T15:14:57.705Z,5.30
2023-04-07T15:20:00.650Z,6.43
2023-04-07T15:25:03.914Z,4.78
2023-04-07T15:30:06.954Z,5.95
2023-04-07T15:35:10.014Z,5.22
2023-04-07T15:40:12.756Z,7.03
2023-04-07T15:45:15.806Z,4.57
2023-04-07T15:50:18.725Z,6.13
2023-04-07T15:55:22.233Z,7.60
2023-04-07T16:00:27.970Z,3.60
2023-04-07T16:05:38.295Z,4.88
2023-04-07T16:10:41.066Z,4.78
2023-04-07T16:15:43.968Z,7.60
2023-04-07T16:20:46.861Z,7.47
2023-04-07T16:25:49.824Z,7.18
2023-04-07T16:30:52.553Z,6.65
2023-04-07T16:35:55.454Z,5.68
2023-04-07T16:41:04.507Z,3.95
2023-04-07T16:46:07.787Z,4.28
2023-04-07T16:51:10.701Z,4.55
2023-04-07T16:56:20.275Z,5.72
2023-04-07T17:01:23.147Z,6.57
2023-04-07T17:06:28.324Z,4.68
2023-04-07T17:11:31.137Z,5.25
2023-04-07T17:16:36.706Z,5.95
2023-04-07T17:21:39.607Z,6.47
2023-04-07T17:26:48.942Z,6.90
2023-04-07T17:31:51.595Z,5.07
2023-04-07T17:36:54.531Z,4.13
2023-04-07T17:41:57.481Z,6.25
2023-04-07T17:47:00.636Z,4.85
2023-04-07T17:52:03.636Z,4.45
2023-04-07T17:57:06.560Z,5.50
2023-04-07T18:02:10.363Z,5.07
2023-04-07T18:07:13.962Z,4.90
2023-04-07T18:12:20.202Z,6.68
2023-04-07T18:17:23.118Z,6.00
2023-04-07T18:22:26.942Z,5.65
2023-04-07T18:27:29.965Z,6.03
2023-04-07T18:32:32.776Z,5.35
2023-04-07T18:37:37.163Z,7.22
2023-04-07T18:42:39.976Z,5.60
2023-04-07T18:47:42.800Z,4.57
2023-04-07T18:52:48.752Z,6.63
2023-04-07T18:57:51.785Z,5.97
2023-04-07T19:02:54.876Z,4.65
2023-04-07T19:07:57.822Z,4.55
2023-04-07T19:13:02.032Z,5.85
2023-04-07T19:18:05.090Z,4.70
2023-04-07T19:23:08.307Z,6.63
2023-04-07T19:28:11.346Z,6.35
2023-04-07T19:33:14.158Z,5.05
2023-04-07T19:38:17.027Z,4.10
2023-04-07T19:43:20.508Z,6.25
2023-04-07T19:48:23.242Z,8.27
2023-04-07T19:53:26.458Z,5.90
2023-04-07T19:58:29.186Z,8.43
2023-04-07T20:03:32.303Z,5.22
2023-04-07T20:08:35.064Z,14.07
2023-04-07T20:13:38.181Z,9.45
2023-04-07T20:18:40.994Z,11.27
2023-04-07T20:23:43.760Z,16.85
2023-04-07T20:28:46.636Z,15.15
2023-04-07T20:33:49.556Z,8.32
2023-04-07T20:38:54.597Z,11.57
2023-04-07T20:43:57.622Z,11.07
2023-04-07T20:49:00.291Z,12.77
2023-04-07T20:54:03.528Z,10.57
2023-04-07T20:59:06.563Z,7.93
2023-04-07T21:04:09.911Z,19.52
2023-04-07T21:09:12.775Z,9.73
2023-04-07T21:14:15.938Z,11.52
2023-04-07T21:19:18.675Z,10.52
2023-04-07T21:24:24.297Z,9.90
2023-04-07T21:29:29.736Z,6.32
2023-04-07T21:34:32.589Z,8.25
2023-04-07T21:39:35.328Z,9.27
2023-04-07T21:44:37.997Z,7.97
2023-04-07T21:49:41.203Z,5.32
2023-04-07T21:54:44.891Z,7.95
2023-04-07T21:59:47.632Z,7.43
2023-04-07T22:04:50.958Z,8.85
2023-04-07T22:09:53.784Z,13.07
2023-04-07T22:14:56.632Z,9.88
2023-04-07T22:19:59.448Z,6.32
2023-04-07T22:25:02.261Z,9.38
2023-04-07T22:30:05.376Z,7.53
2023-04-07T22:35:08.731Z,6.57
2023-04-07T22:40:11.729Z,8.82
2023-04-07T22:45:14.610Z,6.90
2023-04-07T22:50:17.241Z,9.23
2023-04-07T22:55:20.293Z,8.02
2023-04-07T23:00:25.997Z,6.03
2023-04-07T23:05:29.003Z,6.30
2023-04-07T23:10:32.325Z,5.82
2023-04-07T23:15:36.089Z,7.15
2023-04-07T23:20:38.772Z,4.72
2023-04-07T23:25:41.472Z,6.70
2023-04-07T23:30:44.315Z,6.93
2023-04-07T23:35:47.538Z,15.13
2023-04-07T23:40:50.359Z,5.65
2023-04-07T23:45:53.244Z,6.90
2023-04-07T23:50:56.255Z,5.45
2023-04-07T23:55:59.043Z,7.88
